sensor_id;sensor_type;location;lat;lon;timestamp;P1;durP1;ratioP1;P2;durP2;ratioP2
51995;SDS011;38010;53.264;6.592;2022-07-23T00:01:20;0.70;;;0.60;;
51995;SDS011;38010;53.264;6.592;2022-07-23T00:03:46;0.65;;;0.55;;
51995;SDS011;38010;53.264;6.592;2022-07-23T00:06:12;2.00;;;0.70;;
51995;SDS011;38010;53.264;6.592;2022-07-23T00:08:38;1.63;;;0.70;;
51995;SDS011;38010;53.264;6.592;2022-07-23T00:11:03;0.73;;;0.57;;
51995;SDS011;38010;53.264;6.592;2022-07-23T00:13:29;0.73;;;0.60;;
51995;SDS011;38010;53.264;6.592;2022-07-23T00:15:55;0.55;;;0.50;;
51995;SDS011;38010;53.264;6.592;2022-07-23T00:18:20;0.60;;;0.60;;
51995;SDS011;38010;53.264;6.592;2022-07-23T00:20:46;0.50;;;0.50;;
51995;SDS011;38010;53.264;6.592;2022-07-23T00:23:12;1.50;;;0.77;;
51995;SDS011;38010;53.264;6.592;2022-07-23T00:25:38;1.10;;;0.40;;
51995;SDS011;38010;53.264;6.592;2022-07-23T00:28:04;0.75;;;0.50;;
51995;SDS011;38010;53.264;6.592;2022-07-23T00:30:30;0.50;;;0.50;;
51995;SDS011;38010;53.264;6.592;2022-07-23T00:32:57;0.60;;;0.40;;
51995;SDS011;38010;53.264;6.592;2022-07-23T00:35:25;1.25;;;0.50;;
51995;SDS011;38010;53.264;6.592;2022-07-23T00:37:53;1.65;;;0.65;;
51995;SDS011;38010;53.264;6.592;2022-07-23T00:40:19;1.05;;;0.60;;
51995;SDS011;38010;53.264;6.592;2022-07-23T00:42:45;0.93;;;0.55;;
51995;SDS011;38010;53.264;6.592;2022-07-23T00:45:11;0.85;;;0.50;;
51995;SDS011;38010;53.264;6.592;2022-07-23T00:47:37;1.13;;;0.85;;
51995;SDS011;38010;53.264;6.592;2022-07-23T00:50:03;0.80;;;0.55;;
51995;SDS011;38010;53.264;6.592;2022-07-23T00:52:30;0.70;;;0.70;;
51995;SDS011;38010;53.264;6.592;2022-07-23T00:54:57;0.60;;;0.60;;
51995;SDS011;38010;53.264;6.592;2022-07-23T00:57:22;1.42;;;0.50;;
51995;SDS011;38010;53.264;6.592;2022-07-23T00:59:48;0.70;;;0.50;;
51995;SDS011;38010;53.264;6.592;2022-07-23T01:02:14;0.60;;;0.52;;
51995;SDS011;38010;53.264;6.592;2022-07-23T01:04:39;0.80;;;0.70;;
51995;SDS011;38010;53.264;6.592;2022-07-23T01:07:05;0.50;;;0.50;;
51995;SDS011;38010;53.264;6.592;2022-07-23T01:09:31;0.70;;;0.60;;
51995;SDS011;38010;53.264;6.592;2022-07-23T01:11:57;0.60;;;0.60;;
51995;SDS011;38010;53.264;6.592;2022-07-23T01:14:25;0.70;;;0.63;;
51995;SDS011;38010;53.264;6.592;2022-07-23T01:16:51;0.70;;;0.60;;
51995;SDS011;38010;53.264;6.592;2022-07-23T01:19:17;0.70;;;0.60;;
51995;SDS011;38010;53.264;6.592;2022-07-23T01:21:47;1.50;;;0.60;;
51995;SDS011;38010;53.264;6.592;2022-07-23T01:24:14;2.00;;;0.65;;
51995;SDS011;38010;53.264;6.592;2022-07-23T01:26:44;1.58;;;0.60;;
51995;SDS011;38010;53.264;6.592;2022-07-23T01:29:10;0.70;;;0.50;;
51995;SDS011;38010;53.264;6.592;2022-07-23T01:31:36;1.30;;;0.63;;
51995;SDS011;38010;53.264;6.592;2022-07-23T01:34:02;1.30;;;0.63;;
51995;SDS011;38010;53.264;6.592;2022-07-23T01:36:29;1.88;;;0.55;;
51995;SDS011;38010;53.264;6.592;2022-07-23T01:38:55;0.80;;;0.65;;
51995;SDS011;38010;53.264;6.592;2022-07-23T01:41:20;0.50;;;0.50;;
51995;SDS011;38010;53.264;6.592;2022-07-23T01:43:46;0.50;;;0.45;;
51995;SDS011;38010;53.264;6.592;2022-07-23T01:46:12;0.90;;;0.60;;
51995;SDS011;38010;53.264;6.592;2022-07-23T01:48:38;1.75;;;0.73;;
51995;SDS011;38010;53.264;6.592;2022-07-23T01:51:04;0.88;;;0.52;;
51995;SDS011;38010;53.264;6.592;2022-07-23T01:53:30;1.13;;;0.50;;
51995;SDS011;38010;53.264;6.592;2022-07-23T01:55:56;1.27;;;0.63;;
51995;SDS011;38010;53.264;6.592;2022-07-23T01:58:26;0.77;;;0.57;;
51995;SDS011;38010;53.264;6.592;2022-07-23T02:00:52;1.02;;;0.60;;
51995;SDS011;38010;53.264;6.592;2022-07-23T02:03:19;1.83;;;0.55;;
51995;SDS011;38010;53.264;6.592;2022-07-23T02:05:45;1.63;;;0.60;;
51995;SDS011;38010;53.264;6.592;2022-07-23T02:08:11;0.80;;;0.60;;
51995;SDS011;38010;53.264;6.592;2022-07-23T02:10:37;1.23;;;0.60;;
51995;SDS011;38010;53.264;6.592;2022-07-23T02:13:02;1.25;;;0.50;;
51995;SDS011;38010;53.264;6.592;2022-07-23T02:15:28;1.10;;;0.55;;
51995;SDS011;38010;53.264;6.592;2022-07-23T02:17:54;1.52;;;0.47;;
51995;SDS011;38010;53.264;6.592;2022-07-23T02:20:20;0.70;;;0.50;;
51995;SDS011;38010;53.264;6.592;2022-07-23T02:22:47;1.13;;;0.70;;
51995;SDS011;38010;53.264;6.592;2022-07-23T02:25:13;1.25;;;0.50;;
51995;SDS011;38010;53.264;6.592;2022-07-23T02:27:39;0.80;;;0.50;;
51995;SDS011;38010;53.264;6.592;2022-07-23T02:30:05;0.88;;;0.60;;
51995;SDS011;38010;53.264;6.592;2022-07-23T02:32:31;0.80;;;0.60;;
51995;SDS011;38010;53.264;6.592;2022-07-23T02:34:56;0.70;;;0.70;;
51995;SDS011;38010;53.264;6.592;2022-07-23T02:37:22;0.70;;;0.70;;
51995;SDS011;38010;53.264;6.592;2022-07-23T02:39:48;0.95;;;0.70;;
51995;SDS011;38010;53.264;6.592;2022-07-23T02:42:14;1.27;;;0.50;;
51995;SDS011;38010;53.264;6.592;2022-07-23T02:44:40;1.75;;;0.60;;
51995;SDS011;38010;53.264;6.592;2022-07-23T02:47:06;0.50;;;0.50;;
51995;SDS011;38010;53.264;6.592;2022-07-23T02:49:31;1.25;;;0.52;;
51995;SDS011;38010;53.264;6.592;2022-07-23T02:51:57;0.77;;;0.57;;
51995;SDS011;38010;53.264;6.592;2022-07-23T02:54:23;1.00;;;0.50;;
51995;SDS011;38010;53.264;6.592;2022-07-23T02:56:48;0.68;;;0.50;;
51995;SDS011;38010;53.264;6.592;2022-07-23T02:59:16;0.98;;;0.60;;
51995;SDS011;38010;53.264;6.592;2022-07-23T03:01:42;1.02;;;0.50;;
51995;SDS011;38010;53.264;6.592;2022-07-23T03:04:08;0.77;;;0.57;;
51995;SDS011;38010;53.264;6.592;2022-07-23T03:06:34;1.05;;;0.50;;
51995;SDS011;38010;53.264;6.592;2022-07-23T03:09:01;0.80;;;0.50;;
51995;SDS011;38010;53.264;6.592;2022-07-23T03:11:27;1.38;;;0.75;;
51995;SDS011;38010;53.264;6.592;2022-07-23T03:13:53;2.30;;;0.60;;
51995;SDS011;38010;53.264;6.592;2022-07-23T03:16:18;1.30;;;0.70;;
51995;SDS011;38010;53.264;6.592;2022-07-23T03:18:44;1.35;;;0.70;;
51995;SDS011;38010;53.264;6.592;2022-07-23T03:21:10;1.42;;;0.60;;
51995;SDS011;38010;53.264;6.592;2022-07-23T03:23:35;1.35;;;0.60;;
51995;SDS011;38010;53.264;6.592;2022-07-23T03:26:01;0.40;;;0.40;;
51995;SDS011;38010;53.264;6.592;2022-07-23T03:28:27;0.50;;;0.50;;
51995;SDS011;38010;53.264;6.592;2022-07-23T03:30:53;1.15;;;0.68;;
51995;SDS011;38010;53.264;6.592;2022-07-23T03:33:19;1.67;;;0.70;;
51995;SDS011;38010;53.264;6.592;2022-07-23T03:35:45;1.75;;;0.50;;
51995;SDS011;38010;53.264;6.592;2022-07-23T03:38:11;0.73;;;0.60;;
51995;SDS011;38010;53.264;6.592;2022-07-23T03:40:37;1.55;;;0.68;;
51995;SDS011;38010;53.264;6.592;2022-07-23T03:43:03;0.75;;;0.57;;
51995;SDS011;38010;53.264;6.592;2022-07-23T03:45:29;1.33;;;0.68;;
51995;SDS011;38010;53.264;6.592;2022-07-23T03:47:55;1.05;;;0.70;;
51995;SDS011;38010;53.264;6.592;2022-07-23T03:50:21;0.80;;;0.70;;
51995;SDS011;38010;53.264;6.592;2022-07-23T03:52:46;1.08;;;0.90;;
51995;SDS011;38010;53.264;6.592;2022-07-23T03:55:12;1.30;;;0.80;;
51995;SDS011;38010;53.264;6.592;2022-07-23T03:57:38;0.63;;;0.60;;
51995;SDS011;38010;53.264;6.592;2022-07-23T04:00:04;0.60;;;0.50;;
51995;SDS011;38010;53.264;6.592;2022-07-23T04:02:31;0.70;;;0.60;;
51995;SDS011;38010;53.264;6.592;2022-07-23T04:04:57;1.15;;;0.60;;
51995;SDS011;38010;53.264;6.592;2022-07-23T04:07:24;0.98;;;0.73;;
51995;SDS011;38010;53.264;6.592;2022-07-23T04:09:50;1.02;;;0.70;;
51995;SDS011;38010;53.264;6.592;2022-07-23T04:12:15;0.65;;;0.55;;
51995;SDS011;38010;53.264;6.592;2022-07-23T04:14:41;1.02;;;0.50;;
51995;SDS011;38010;53.264;6.592;2022-07-23T04:17:07;1.25;;;0.70;;
51995;SDS011;38010;53.264;6.592;2022-07-23T04:19:32;0.77;;;0.60;;
51995;SDS011;38010;53.264;6.592;2022-07-23T04:21:58;1.33;;;0.68;;
51995;SDS011;38010;53.264;6.592;2022-07-23T04:24:24;1.05;;;0.60;;
51995;SDS011;38010;53.264;6.592;2022-07-23T04:26:49;0.82;;;0.52;;
51995;SDS011;38010;53.264;6.592;2022-07-23T04:29:15;1.15;;;0.77;;
51995;SDS011;38010;53.264;6.592;2022-07-23T04:31:40;1.15;;;0.50;;
51995;SDS011;38010;53.264;6.592;2022-07-23T04:34:06;2.20;;;0.60;;
51995;SDS011;38010;53.264;6.592;2022-07-23T04:36:32;1.30;;;0.75;;
51995;SDS011;38010;53.264;6.592;2022-07-23T04:38:57;1.70;;;0.65;;
51995;SDS011;38010;53.264;6.592;2022-07-23T04:41:23;0.90;;;0.60;;
51995;SDS011;38010;53.264;6.592;2022-07-23T04:43:49;0.65;;;0.60;;
51995;SDS011;38010;53.264;6.592;2022-07-23T04:46:14;0.90;;;0.60;;
51995;SDS011;38010;53.264;6.592;2022-07-23T04:48:40;1.10;;;0.50;;
51995;SDS011;38010;53.264;6.592;2022-07-23T04:51:07;0.80;;;0.60;;
51995;SDS011;38010;53.264;6.592;2022-07-23T04:53:33;1.08;;;0.60;;
51995;SDS011;38010;53.264;6.592;2022-07-23T04:55:58;0.70;;;0.60;;
51995;SDS011;38010;53.264;6.592;2022-07-23T04:58:24;0.60;;;0.57;;
51995;SDS011;38010;53.264;6.592;2022-07-23T05:00:50;0.65;;;0.55;;
51995;SDS011;38010;53.264;6.592;2022-07-23T05:03:16;0.80;;;0.60;;
51995;SDS011;38010;53.264;6.592;2022-07-23T05:05:42;0.70;;;0.50;;
51995;SDS011;38010;53.264;6.592;2022-07-23T05:08:08;1.55;;;0.70;;
51995;SDS011;38010;53.264;6.592;2022-07-23T05:10:33;0.98;;;0.60;;
51995;SDS011;38010;53.264;6.592;2022-07-23T05:12:59;0.65;;;0.60;;
51995;SDS011;38010;53.264;6.592;2022-07-23T05:15:25;1.95;;;0.70;;
51995;SDS011;38010;53.264;6.592;2022-07-23T05:17:51;1.20;;;0.60;;
51995;SDS011;38010;53.264;6.592;2022-07-23T05:20:16;1.23;;;0.50;;
51995;SDS011;38010;53.264;6.592;2022-07-23T05:22:42;0.80;;;0.70;;
51995;SDS011;38010;53.264;6.592;2022-07-23T05:25:08;1.67;;;0.65;;
51995;SDS011;38010;53.264;6.592;2022-07-23T05:27:33;0.73;;;0.50;;
51995;SDS011;38010;53.264;6.592;2022-07-23T05:29:59;0.63;;;0.60;;
51995;SDS011;38010;53.264;6.592;2022-07-23T05:32:25;1.02;;;0.50;;
51995;SDS011;38010;53.264;6.592;2022-07-23T05:34:51;0.70;;;0.50;;
51995;SDS011;38010;53.264;6.592;2022-07-23T05:37:16;0.95;;;0.40;;
51995;SDS011;38010;53.264;6.592;2022-07-23T05:39:42;1.80;;;0.77;;
51995;SDS011;38010;53.264;6.592;2022-07-23T05:42:08;0.70;;;0.60;;
51995;SDS011;38010;53.264;6.592;2022-07-23T05:44:34;0.50;;;0.50;;
51995;SDS011;38010;53.264;6.592;2022-07-23T05:46:59;0.60;;;0.50;;
51995;SDS011;38010;53.264;6.592;2022-07-23T05:49:25;0.40;;;0.40;;
51995;SDS011;38010;53.264;6.592;2022-07-23T05:51:51;0.63;;;0.50;;
51995;SDS011;38010;53.264;6.592;2022-07-23T05:54:17;0.52;;;0.50;;
51995;SDS011;38010;53.264;6.592;2022-07-23T05:56:42;0.47;;;0.47;;
51995;SDS011;38010;53.264;6.592;2022-07-23T05:59:08;0.65;;;0.40;;
51995;SDS011;38010;53.264;6.592;2022-07-23T06:01:34;0.50;;;0.50;;
51995;SDS011;38010;53.264;6.592;2022-07-23T06:03:59;0.50;;;0.50;;
51995;SDS011;38010;53.264;6.592;2022-07-23T06:06:25;0.77;;;0.60;;
51995;SDS011;38010;53.264;6.592;2022-07-23T06:08:51;0.55;;;0.45;;
51995;SDS011;38010;53.264;6.592;2022-07-23T06:11:16;0.57;;;0.40;;
51995;SDS011;38010;53.264;6.592;2022-07-23T06:13:42;0.90;;;0.47;;
51995;SDS011;38010;53.264;6.592;2022-07-23T06:16:08;0.45;;;0.43;;
51995;SDS011;38010;53.264;6.592;2022-07-23T06:18:33;0.57;;;0.50;;
51995;SDS011;38010;53.264;6.592;2022-07-23T06:20:59;0.80;;;0.50;;
51995;SDS011;38010;53.264;6.592;2022-07-23T06:23:25;0.40;;;0.40;;
51995;SDS011;38010;53.264;6.592;2022-07-23T06:25:51;1.23;;;0.50;;
51995;SDS011;38010;53.264;6.592;2022-07-23T06:28:17;0.35;;;0.30;;
51995;SDS011;38010;53.264;6.592;2022-07-23T06:30:42;1.05;;;0.40;;
51995;SDS011;38010;53.264;6.592;2022-07-23T06:33:08;0.47;;;0.47;;
51995;SDS011;38010;53.264;6.592;2022-07-23T06:35:34;1.17;;;0.50;;
51995;SDS011;38010;53.264;6.592;2022-07-23T06:38:00;0.77;;;0.40;;
51995;SDS011;38010;53.264;6.592;2022-07-23T06:40:26;0.77;;;0.40;;
51995;SDS011;38010;53.264;6.592;2022-07-23T06:42:51;1.15;;;0.57;;
51995;SDS011;38010;53.264;6.592;2022-07-23T06:45:17;1.08;;;0.50;;
51995;SDS011;38010;53.264;6.592;2022-07-23T06:47:43;0.85;;;0.50;;
51995;SDS011;38010;53.264;6.592;2022-07-23T06:50:09;0.38;;;0.38;;
51995;SDS011;38010;53.264;6.592;2022-07-23T06:52:35;0.65;;;0.50;;
51995;SDS011;38010;53.264;6.592;2022-07-23T06:55:00;0.30;;;0.30;;
51995;SDS011;38010;53.264;6.592;2022-07-23T06:57:26;0.88;;;0.40;;
51995;SDS011;38010;53.264;6.592;2022-07-23T06:59:52;0.60;;;0.50;;
51995;SDS011;38010;53.264;6.592;2022-07-23T07:02:18;1.33;;;0.40;;
51995;SDS011;38010;53.264;6.592;2022-07-23T07:04:43;0.35;;;0.35;;
51995;SDS011;38010;53.264;6.592;2022-07-23T07:07:10;0.88;;;0.32;;
51995;SDS011;38010;53.264;6.592;2022-07-23T07:09:36;0.47;;;0.40;;
51995;SDS011;38010;53.264;6.592;2022-07-23T07:12:03;0.50;;;0.50;;
51995;SDS011;38010;53.264;6.592;2022-07-23T07:14:29;0.40;;;0.40;;
51995;SDS011;38010;53.264;6.592;2022-07-23T07:16:54;0.50;;;0.40;;
51995;SDS011;38010;53.264;6.592;2022-07-23T07:19:20;1.08;;;0.40;;
51995;SDS011;38010;53.264;6.592;2022-07-23T07:21:46;0.65;;;0.40;;
51995;SDS011;38010;53.264;6.592;2022-07-23T07:24:11;0.30;;;0.30;;
51995;SDS011;38010;53.264;6.592;2022-07-23T07:26:37;0.65;;;0.40;;
51995;SDS011;38010;53.264;6.592;2022-07-23T07:29:04;1.05;;;0.50;;
51995;SDS011;38010;53.264;6.592;2022-07-23T07:31:30;0.93;;;0.40;;
51995;SDS011;38010;53.264;6.592;2022-07-23T07:33:56;0.55;;;0.40;;
51995;SDS011;38010;53.264;6.592;2022-07-23T07:36:22;0.88;;;0.45;;
51995;SDS011;38010;53.264;6.592;2022-07-23T07:38:48;0.98;;;0.47;;
51995;SDS011;38010;53.264;6.592;2022-07-23T07:41:14;0.90;;;0.40;;
51995;SDS011;38010;53.264;6.592;2022-07-23T07:43:39;0.40;;;0.38;;
51995;SDS011;38010;53.264;6.592;2022-07-23T07:46:05;0.40;;;0.40;;
51995;SDS011;38010;53.264;6.592;2022-07-23T07:48:35;1.58;;;0.40;;
51995;SDS011;38010;53.264;6.592;2022-07-23T07:51:04;0.80;;;0.40;;
51995;SDS011;38010;53.264;6.592;2022-07-23T07:53:30;0.50;;;0.40;;
51995;SDS011;38010;53.264;6.592;2022-07-23T07:55:55;0.73;;;0.50;;
51995;SDS011;38010;53.264;6.592;2022-07-23T07:58:21;0.73;;;0.47;;
51995;SDS011;38010;53.264;6.592;2022-07-23T08:00:47;0.85;;;0.40;;
51995;SDS011;38010;53.264;6.592;2022-07-23T08:03:13;0.55;;;0.40;;
51995;SDS011;38010;53.264;6.592;2022-07-23T08:05:38;0.95;;;0.30;;
51995;SDS011;38010;53.264;6.592;2022-07-23T08:08:04;0.63;;;0.30;;
51995;SDS011;38010;53.264;6.592;2022-07-23T08:10:30;0.43;;;0.30;;
51995;SDS011;38010;53.264;6.592;2022-07-23T08:12:57;0.47;;;0.40;;
51995;SDS011;38010;53.264;6.592;2022-07-23T08:15:23;0.35;;;0.30;;
51995;SDS011;38010;53.264;6.592;2022-07-23T08:17:50;0.30;;;0.30;;
51995;SDS011;38010;53.264;6.592;2022-07-23T08:20:17;1.33;;;0.40;;
51995;SDS011;38010;53.264;6.592;2022-07-23T08:22:49;1.08;;;0.30;;
51995;SDS011;38010;53.264;6.592;2022-07-23T08:25:26;0.85;;;0.40;;
51995;SDS011;38010;53.264;6.592;2022-07-23T08:28:18;0.30;;;0.30;;
51995;SDS011;38010;53.264;6.592;2022-07-23T08:30:44;0.77;;;0.38;;
51995;SDS011;38010;53.264;6.592;2022-07-23T08:33:11;0.52;;;0.30;;
51995;SDS011;38010;53.264;6.592;2022-07-23T08:35:39;0.88;;;0.35;;
51995;SDS011;38010;53.264;6.592;2022-07-23T08:38:07;0.20;;;0.20;;
51995;SDS011;38010;53.264;6.592;2022-07-23T08:40:35;0.40;;;0.40;;
51995;SDS011;38010;53.264;6.592;2022-07-23T08:43:05;0.35;;;0.30;;
51995;SDS011;38010;53.264;6.592;2022-07-23T08:45:35;0.30;;;0.30;;
51995;SDS011;38010;53.264;6.592;2022-07-23T08:48:11;0.40;;;0.32;;
51995;SDS011;38010;53.264;6.592;2022-07-23T08:50:48;0.57;;;0.32;;
51995;SDS011;38010;53.264;6.592;2022-07-23T08:53:15;1.02;;;0.50;;
51995;SDS011;38010;53.264;6.592;2022-07-23T08:56:02;0.40;;;0.40;;
51995;SDS011;38010;53.264;6.592;2022-07-23T08:58:30;0.30;;;0.30;;
51995;SDS011;38010;53.264;6.592;2022-07-23T09:00:56;0.30;;;0.30;;
51995;SDS011;38010;53.264;6.592;2022-07-23T09:03:24;0.35;;;0.30;;
51995;SDS011;38010;53.264;6.592;2022-07-23T09:05:54;0.20;;;0.20;;
51995;SDS011;38010;53.264;6.592;2022-07-23T09:08:23;0.80;;;0.30;;
51995;SDS011;38010;53.264;6.592;2022-07-23T09:10:51;0.30;;;0.30;;
51995;SDS011;38010;53.264;6.592;2022-07-23T09:21:13;0.50;;;0.30;;
51995;SDS011;38010;53.264;6.592;2022-07-23T09:23:49;0.73;;;0.30;;
51995;SDS011;38010;53.264;6.592;2022-07-23T09:29:02;0.35;;;0.30;;
51995;SDS011;38010;53.264;6.592;2022-07-23T09:36:41;0.40;;;0.25;;
51995;SDS011;38010;53.264;6.592;2022-07-23T09:39:08;0.60;;;0.30;;
51995;SDS011;38010;53.264;6.592;2022-07-23T09:41:56;0.65;;;0.50;;
51995;SDS011;38010;53.264;6.592;2022-07-23T09:44:43;0.30;;;0.30;;
51995;SDS011;38010;53.264;6.592;2022-07-23T09:47:10;0.43;;;0.30;;
51995;SDS011;38010;53.264;6.592;2022-07-23T09:49:36;0.57;;;0.30;;
51995;SDS011;38010;53.264;6.592;2022-07-23T09:52:02;1.30;;;0.43;;
51995;SDS011;38010;53.264;6.592;2022-07-23T09:54:38;0.77;;;0.30;;
51995;SDS011;38010;53.264;6.592;2022-07-23T09:57:11;1.02;;;0.30;;
51995;SDS011;38010;53.264;6.592;2022-07-23T09:59:43;3.20;;;0.40;;
51995;SDS011;38010;53.264;6.592;2022-07-23T10:02:13;0.85;;;0.52;;
51995;SDS011;38010;53.264;6.592;2022-07-23T10:04:39;2.15;;;0.50;;
51995;SDS011;38010;53.264;6.592;2022-07-23T10:07:07;1.55;;;0.50;;
51995;SDS011;38010;53.264;6.592;2022-07-23T10:09:36;1.60;;;0.73;;
51995;SDS011;38010;53.264;6.592;2022-07-23T10:12:04;1.38;;;0.57;;
51995;SDS011;38010;53.264;6.592;2022-07-23T10:14:53;6.18;;;0.50;;
51995;SDS011;38010;53.264;6.592;2022-07-23T10:17:19;1.38;;;0.40;;
51995;SDS011;38010;53.264;6.592;2022-07-23T10:19:45;1.13;;;0.50;;
51995;SDS011;38010;53.264;6.592;2022-07-23T10:22:13;1.58;;;0.40;;
51995;SDS011;38010;53.264;6.592;2022-07-23T10:25:03;1.60;;;0.52;;
51995;SDS011;38010;53.264;6.592;2022-07-23T10:30:36;2.50;;;0.40;;
51995;SDS011;38010;53.264;6.592;2022-07-23T10:36:06;1.15;;;0.70;;
51995;SDS011;38010;53.264;6.592;2022-07-23T10:38:48;1.13;;;0.35;;
51995;SDS011;38010;53.264;6.592;2022-07-23T10:41:30;0.90;;;0.40;;
51995;SDS011;38010;53.264;6.592;2022-07-23T10:44:11;1.33;;;0.60;;
51995;SDS011;38010;53.264;6.592;2022-07-23T10:46:53;1.42;;;0.40;;
51995;SDS011;38010;53.264;6.592;2022-07-23T10:49:44;1.38;;;0.47;;
51995;SDS011;38010;53.264;6.592;2022-07-23T10:54:39;0.73;;;0.45;;
51995;SDS011;38010;53.264;6.592;2022-07-23T10:57:10;1.15;;;0.45;;
51995;SDS011;38010;53.264;6.592;2022-07-23T11:02:32;0.65;;;0.40;;
51995;SDS011;38010;53.264;6.592;2022-07-23T11:04:59;0.60;;;0.43;;
51995;SDS011;38010;53.264;6.592;2022-07-23T11:07:35;0.60;;;0.40;;
51995;SDS011;38010;53.264;6.592;2022-07-23T11:10:03;0.55;;;0.45;;
51995;SDS011;38010;53.264;6.592;2022-07-23T11:14:59;1.83;;;0.30;;
51995;SDS011;38010;53.264;6.592;2022-07-23T11:17:29;3.75;;;0.50;;
51995;SDS011;38010;53.264;6.592;2022-07-23T11:25:10;2.45;;;0.60;;
51995;SDS011;38010;53.264;6.592;2022-07-23T11:27:53;3.42;;;0.70;;
51995;SDS011;38010;53.264;6.592;2022-07-23T11:32:54;1.30;;;0.57;;
51995;SDS011;38010;53.264;6.592;2022-07-23T11:35:33;1.08;;;0.70;;
51995;SDS011;38010;53.264;6.592;2022-07-23T11:38:07;0.95;;;0.60;;
51995;SDS011;38010;53.264;6.592;2022-07-23T11:40:38;0.70;;;0.55;;
51995;SDS011;38010;53.264;6.592;2022-07-23T11:43:05;3.95;;;0.80;;
51995;SDS011;38010;53.264;6.592;2022-07-23T11:48:01;2.33;;;0.60;;
51995;SDS011;38010;53.264;6.592;2022-07-23T11:50:27;6.40;;;1.08;;
51995;SDS011;38010;53.264;6.592;2022-07-23T11:52:54;2.67;;;0.90;;
51995;SDS011;38010;53.264;6.592;2022-07-23T11:55:20;1.80;;;0.70;;
51995;SDS011;38010;53.264;6.592;2022-07-23T11:57:46;2.58;;;0.70;;
51995;SDS011;38010;53.264;6.592;2022-07-23T12:02:43;2.78;;;0.70;;
51995;SDS011;38010;53.264;6.592;2022-07-23T12:05:17;1.45;;;0.60;;
51995;SDS011;38010;53.264;6.592;2022-07-23T12:07:45;2.53;;;0.50;;
51995;SDS011;38010;53.264;6.592;2022-07-23T12:10:22;3.42;;;0.90;;
51995;SDS011;38010;53.264;6.592;2022-07-23T12:12:59;2.47;;;0.70;;
51995;SDS011;38010;53.264;6.592;2022-07-23T12:17:59;4.00;;;0.90;;
51995;SDS011;38010;53.264;6.592;2022-07-23T12:20:39;5.32;;;0.90;;
51995;SDS011;38010;53.264;6.592;2022-07-23T12:23:11;4.97;;;0.93;;
51995;SDS011;38010;53.264;6.592;2022-07-23T12:25:40;1.77;;;0.50;;
51995;SDS011;38010;53.264;6.592;2022-07-23T12:30:39;4.63;;;0.50;;
51995;SDS011;38010;53.264;6.592;2022-07-23T12:33:07;0.82;;;0.50;;
51995;SDS011;38010;53.264;6.592;2022-07-23T12:35:37;1.98;;;0.50;;
51995;SDS011;38010;53.264;6.592;2022-07-23T12:40:34;1.55;;;0.68;;
51995;SDS011;38010;53.264;6.592;2022-07-23T12:43:06;2.15;;;0.80;;
51995;SDS011;38010;53.264;6.592;2022-07-23T12:45:44;1.17;;;0.85;;
51995;SDS011;38010;53.264;6.592;2022-07-23T12:48:15;2.47;;;0.50;;
51995;SDS011;38010;53.264;6.592;2022-07-23T12:51:04;2.92;;;0.70;;
51995;SDS011;38010;53.264;6.592;2022-07-23T12:56:08;2.78;;;0.70;;
51995;SDS011;38010;53.264;6.592;2022-07-23T13:06:51;2.20;;;0.60;;
51995;SDS011;38010;53.264;6.592;2022-07-23T13:09:24;2.42;;;0.68;;
51995;SDS011;38010;53.264;6.592;2022-07-23T13:11:52;1.42;;;0.60;;
51995;SDS011;38010;53.264;6.592;2022-07-23T13:14:19;2.35;;;0.60;;
51995;SDS011;38010;53.264;6.592;2022-07-23T13:16:46;1.60;;;0.80;;
51995;SDS011;38010;53.264;6.592;2022-07-23T13:19:12;0.90;;;0.70;;
51995;SDS011;38010;53.264;6.592;2022-07-23T13:21:39;1.80;;;0.60;;
51995;SDS011;38010;53.264;6.592;2022-07-23T13:24:05;5.72;;;1.05;;
51995;SDS011;38010;53.264;6.592;2022-07-23T13:26:32;6.30;;;1.10;;
51995;SDS011;38010;53.264;6.592;2022-07-23T13:28:58;3.15;;;0.70;;
51995;SDS011;38010;53.264;6.592;2022-07-23T13:31:24;3.50;;;1.00;;
51995;SDS011;38010;53.264;6.592;2022-07-23T13:33:49;5.78;;;1.20;;
51995;SDS011;38010;53.264;6.592;2022-07-23T13:36:15;4.93;;;0.93;;
51995;SDS011;38010;53.264;6.592;2022-07-23T13:38:41;2.28;;;0.80;;
51995;SDS011;38010;53.264;6.592;2022-07-23T13:41:07;2.95;;;1.08;;
51995;SDS011;38010;53.264;6.592;2022-07-23T13:43:32;3.78;;;0.90;;
51995;SDS011;38010;53.264;6.592;2022-07-23T13:45:58;4.50;;;0.80;;
51995;SDS011;38010;53.264;6.592;2022-07-23T13:48:24;2.00;;;0.57;;
51995;SDS011;38010;53.264;6.592;2022-07-23T13:50:50;1.73;;;0.60;;
51995;SDS011;38010;53.264;6.592;2022-07-23T13:53:18;3.47;;;1.02;;
51995;SDS011;38010;53.264;6.592;2022-07-23T13:55:45;1.25;;;0.82;;
51995;SDS011;38010;53.264;6.592;2022-07-23T13:58:13;2.00;;;0.73;;
51995;SDS011;38010;53.264;6.592;2022-07-23T14:00:40;1.67;;;0.57;;
51995;SDS011;38010;53.264;6.592;2022-07-23T14:03:08;1.83;;;0.52;;
51995;SDS011;38010;53.264;6.592;2022-07-23T14:05:34;1.83;;;0.60;;
51995;SDS011;38010;53.264;6.592;2022-07-23T14:08:00;4.60;;;0.93;;
51995;SDS011;38010;53.264;6.592;2022-07-23T14:10:26;2.65;;;0.70;;
51995;SDS011;38010;53.264;6.592;2022-07-23T14:12:52;1.50;;;0.60;;
51995;SDS011;38010;53.264;6.592;2022-07-23T14:15:21;1.55;;;0.60;;
51995;SDS011;38010;53.264;6.592;2022-07-23T14:17:48;2.40;;;0.55;;
51995;SDS011;38010;53.264;6.592;2022-07-23T14:20:14;4.15;;;0.90;;
51995;SDS011;38010;53.264;6.592;2022-07-23T14:22:40;3.13;;;0.50;;
51995;SDS011;38010;53.264;6.592;2022-07-23T14:25:06;1.20;;;0.60;;
51995;SDS011;38010;53.264;6.592;2022-07-23T14:27:33;1.90;;;0.80;;
51995;SDS011;38010;53.264;6.592;2022-07-23T14:29:59;2.17;;;0.60;;
51995;SDS011;38010;53.264;6.592;2022-07-23T14:32:25;3.10;;;0.70;;
51995;SDS011;38010;53.264;6.592;2022-07-23T14:34:51;1.33;;;0.43;;
51995;SDS011;38010;53.264;6.592;2022-07-23T14:37:16;1.42;;;0.60;;
51995;SDS011;38010;53.264;6.592;2022-07-23T14:39:42;1.52;;;0.50;;
51995;SDS011;38010;53.264;6.592;2022-07-23T14:42:09;0.82;;;0.35;;
51995;SDS011;38010;53.264;6.592;2022-07-23T14:44:35;1.85;;;0.63;;
51995;SDS011;38010;53.264;6.592;2022-07-23T14:47:02;1.02;;;0.60;;
51995;SDS011;38010;53.264;6.592;2022-07-23T14:49:29;1.67;;;0.70;;
51995;SDS011;38010;53.264;6.592;2022-07-23T14:51:56;0.50;;;0.40;;
51995;SDS011;38010;53.264;6.592;2022-07-23T14:54:23;1.63;;;0.50;;
51995;SDS011;38010;53.264;6.592;2022-07-23T14:56:51;0.95;;;0.63;;
51995;SDS011;38010;53.264;6.592;2022-07-23T14:59:16;1.05;;;0.30;;
51995;SDS011;38010;53.264;6.592;2022-07-23T15:01:42;1.23;;;0.50;;
51995;SDS011;38010;53.264;6.592;2022-07-23T15:04:08;0.80;;;0.30;;
51995;SDS011;38010;53.264;6.592;2022-07-23T15:06:33;1.42;;;0.60;;
51995;SDS011;38010;53.264;6.592;2022-07-23T15:08:59;1.80;;;0.50;;
51995;SDS011;38010;53.264;6.592;2022-07-23T15:11:28;0.38;;;0.38;;
51995;SDS011;38010;53.264;6.592;2022-07-23T15:13:57;1.33;;;0.53;;
51995;SDS011;38010;53.264;6.592;2022-07-23T15:16:22;1.67;;;0.55;;
51995;SDS011;38010;53.264;6.592;2022-07-23T15:18:48;2.60;;;0.77;;
51995;SDS011;38010;53.264;6.592;2022-07-23T15:21:14;25.85;;;11.95;;
51995;SDS011;38010;53.264;6.592;2022-07-23T15:23:40;24.52;;;11.23;;
51995;SDS011;38010;53.264;6.592;2022-07-23T15:26:06;25.38;;;10.32;;
51995;SDS011;38010;53.264;6.592;2022-07-23T15:28:33;20.65;;;9.48;;
51995;SDS011;38010;53.264;6.592;2022-07-23T15:31:00;18.90;;;9.45;;
51995;SDS011;38010;53.264;6.592;2022-07-23T15:33:26;16.83;;;9.85;;
51995;SDS011;38010;53.264;6.592;2022-07-23T15:35:52;18.55;;;9.13;;
51995;SDS011;38010;53.264;6.592;2022-07-23T15:38:20;16.10;;;7.90;;
51995;SDS011;38010;53.264;6.592;2022-07-23T15:40:46;14.80;;;7.60;;
51995;SDS011;38010;53.264;6.592;2022-07-23T15:43:12;13.05;;;6.45;;
51995;SDS011;38010;53.264;6.592;2022-07-23T15:45:38;15.07;;;7.50;;
51995;SDS011;38010;53.264;6.592;2022-07-23T15:48:05;13.30;;;6.63;;
51995;SDS011;38010;53.264;6.592;2022-07-23T15:50:30;10.40;;;5.55;;